createdAt,value
2023-05-19T00:00:37.207Z,2.47
2023-05-19T00:03:04.966Z,2.78
2023-05-19T00:05:32.550Z,2.72
2023-05-19T00:08:03.298Z,3.20
2023-05-19T00:10:33.117Z,2.40
2023-05-19T00:13:00.810Z,2.83
2023-05-19T00:15:28.108Z,3.10
2023-05-19T00:17:55.608Z,2.90
2023-05-19T00:20:22.917Z,2.80
2023-05-19T00:22:51.096Z,2.78
2023-05-19T00:25:18.080Z,2.58
2023-05-19T00:27:44.976Z,2.40
2023-05-19T00:30:13.064Z,2.47
2023-05-19T00:32:41.053Z,2.40
2023-05-19T00:35:08.692Z,2.67
2023-05-19T00:37:35.598Z,2.50
2023-05-19T00:40:02.656Z,2.80
2023-05-19T00:42:30.306Z,2.80
2023-05-19T00:44:57.330Z,2.25
2023-05-19T00:47:24.441Z,2.90
2023-05-19T00:49:51.524Z,3.05
2023-05-19T00:52:18.603Z,2.55
2023-05-19T00:54:46.441Z,3.08
2023-05-19T00:57:15.231Z,2.50
2023-05-19T00:59:42.238Z,2.95
2023-05-19T01:02:09.220Z,2.72
2023-05-19T01:04:39.409Z,2.80
2023-05-19T01:07:07.116Z,2.88
2023-05-19T01:09:34.143Z,2.50
2023-05-19T01:12:02.012Z,3.03
2023-05-19T01:14:30.259Z,2.88
2023-05-19T01:17:38.250Z,2.67
2023-05-19T01:20:20.111Z,3.20
2023-05-19T01:23:16.660Z,2.88
2023-05-19T01:26:14.715Z,2.88
2023-05-19T01:28:56.510Z,2.83
2023-05-19T01:31:26.022Z,3.00
2023-05-19T01:33:54.845Z,2.85
2023-05-19T01:36:23.466Z,2.95
2023-05-19T01:38:56.054Z,3.20
2023-05-19T01:41:26.187Z,3.45
2023-05-19T01:43:54.231Z,3.17
2023-05-19T01:46:24.041Z,3.03
2023-05-19T01:48:52.485Z,3.13
2023-05-19T01:51:19.977Z,3.00
2023-05-19T01:53:46.962Z,3.25
2023-05-19T01:56:23.980Z,3.47
2023-05-19T01:59:12.267Z,3.15
2023-05-19T02:02:09.555Z,3.15
2023-05-19T02:04:54.984Z,2.95
2023-05-19T02:07:36.008Z,3.33
2023-05-19T02:10:28.044Z,3.17
2023-05-19T02:13:18.940Z,3.17
2023-05-19T02:15:50.536Z,2.85
2023-05-19T02:18:21.017Z,3.30
2023-05-19T02:21:00.369Z,3.10
2023-05-19T02:23:45.938Z,3.55
2023-05-19T02:26:21.588Z,3.13
2023-05-19T02:37:02.314Z,3.50
2023-05-19T02:39:46.859Z,3.40
2023-05-19T02:42:18.735Z,3.42
2023-05-19T02:45:06.668Z,3.60
2023-05-19T02:48:03.838Z,3.25
2023-05-19T02:50:40.320Z,3.67
2023-05-19T02:53:48.887Z,3.67
2023-05-19T02:56:21.007Z,3.78
2023-05-19T02:58:49.445Z,4.03
2023-05-19T03:01:33.280Z,4.47
2023-05-19T03:04:02.400Z,3.72
2023-05-19T03:06:39.057Z,3.78
2023-05-19T03:09:14.487Z,3.63
2023-05-19T03:11:53.708Z,4.03
2023-05-19T03:14:40.479Z,4.13
2023-05-19T03:17:17.034Z,4.38
2023-05-19T03:26:22.539Z,4.57
2023-05-19T03:28:38.709Z,4.40
2023-05-19T03:35:48.139Z,4.40
2023-05-19T03:38:44.417Z,4.10
2023-05-19T03:41:11.478Z,4.28
2023-05-19T03:43:38.531Z,4.25
2023-05-19T03:46:07.707Z,4.10
2023-05-19T03:48:53.509Z,4.50
2023-05-19T03:51:49.642Z,4.15
2023-05-19T03:54:27.457Z,4.75
2023-05-19T03:56:54.986Z,4.22
2023-05-19T03:59:23.605Z,4.00
2023-05-19T04:01:51.656Z,4.38
2023-05-19T04:04:18.857Z,4.70
2023-05-19T04:06:45.887Z,4.15
2023-05-19T04:09:15.537Z,4.45
2023-05-19T04:11:43.346Z,4.30
2023-05-19T04:14:10.454Z,4.60
2023-05-19T04:16:37.710Z,4.30
2023-05-19T04:19:04.899Z,4.78
2023-05-19T04:21:32.100Z,4.50
2023-05-19T04:24:00.146Z,4.20
2023-05-19T04:26:31.107Z,4.53
2023-05-19T04:28:58.285Z,5.00
2023-05-19T04:31:25.583Z,4.10
2023-05-19T04:33:53.506Z,4.45
2023-05-19T04:36:21.826Z,4.43
2023-05-19T04:38:54.840Z,4.97
2023-05-19T04:41:24.686Z,4.70
2023-05-19T04:43:51.662Z,4.07
2023-05-19T04:46:24.350Z,4.20
2023-05-19T04:48:53.380Z,4.28
2023-05-19T04:51:21.112Z,4.80
2023-05-19T04:53:49.137Z,5.20
2023-05-19T04:56:16.179Z,4.10
2023-05-19T04:58:44.815Z,3.90
2023-05-19T05:01:13.858Z,4.95
2023-05-19T05:03:41.672Z,4.50
2023-05-19T05:06:08.886Z,4.25
2023-05-19T05:08:37.312Z,4.75
2023-05-19T05:11:04.735Z,4.55
2023-05-19T05:13:32.364Z,4.35
2023-05-19T05:16:00.625Z,4.40
2023-05-19T05:18:28.098Z,4.32
2023-05-19T05:20:55.720Z,4.45
2023-05-19T05:23:23.152Z,5.10
2023-05-19T05:25:51.443Z,4.03
2023-05-19T05:28:18.942Z,4.35
2023-05-19T05:30:47.419Z,4.43
2023-05-19T05:33:16.127Z,4.25
2023-05-19T05:35:43.466Z,4.40
2023-05-19T05:38:12.417Z,5.15
2023-05-19T05:40:40.408Z,3.53
2023-05-19T05:43:08.468Z,3.78
2023-05-19T05:45:41.449Z,3.70
2023-05-19T05:48:09.528Z,3.90
2023-05-19T05:50:37.240Z,3.95
2023-05-19T05:53:07.857Z,3.63
2023-05-19T05:55:38.146Z,3.78
2023-05-19T05:58:11.269Z,3.90
2023-05-19T06:00:38.754Z,4.60
2023-05-19T06:03:05.880Z,3.80
2023-05-19T06:05:33.240Z,4.00
2023-05-19T06:08:00.222Z,3.80
2023-05-19T06:10:31.190Z,4.43
2023-05-19T06:12:58.890Z,4.47
2023-05-19T06:15:26.813Z,4.28
2023-05-19T06:18:01.265Z,4.00
2023-05-19T06:20:28.571Z,3.88
2023-05-19T06:22:56.476Z,3.45
2023-05-19T06:25:26.289Z,3.90
2023-05-19T06:27:53.471Z,3.05
2023-05-19T06:30:21.669Z,3.70
2023-05-19T06:33:11.936Z,3.50
2023-05-19T06:35:39.550Z,2.90
2023-05-19T06:38:06.900Z,2.88
2023-05-19T06:40:34.194Z,2.80
2023-05-19T06:43:01.372Z,2.75
2023-05-19T06:45:39.588Z,2.58
2023-05-19T06:48:07.558Z,2.50
2023-05-19T06:50:35.120Z,2.28
2023-05-19T06:53:02.505Z,2.60
2023-05-19T07:02:03.335Z,2.00
2023-05-19T07:04:44.649Z,2.22
2023-05-19T07:07:28.187Z,2.40
2023-05-19T07:10:00.021Z,2.25
2023-05-19T07:12:30.437Z,1.98
2023-05-19T07:15:00.484Z,2.15
2023-05-19T07:17:35.447Z,2.40
2023-05-19T07:21:18.845Z,2.38
2023-05-19T07:24:08.422Z,2.10
2023-05-19T07:26:57.539Z,2.40
2023-05-19T07:32:28.486Z,1.73
2023-05-19T07:35:10.746Z,1.70
2023-05-19T07:37:48.548Z,2.10
2023-05-19T07:40:26.137Z,1.92
2023-05-19T07:42:58.833Z,1.70
2023-05-19T07:45:31.955Z,1.98
2023-05-19T07:48:14.672Z,1.83
2023-05-19T07:50:59.337Z,1.83
2023-05-19T07:53:51.915Z,2.35
2023-05-19T07:56:19.405Z,2.03
2023-05-19T07:58:46.372Z,2.40
2023-05-19T08:01:13.532Z,2.10
2023-05-19T08:03:40.689Z,2.03
2023-05-19T08:06:07.819Z,2.00
2023-05-19T08:08:36.450Z,2.17
2023-05-19T08:11:12.544Z,2.00
2023-05-19T08:16:35.493Z,2.17
2023-05-19T08:19:05.282Z,1.55
2023-05-19T08:21:34.713Z,1.90
2023-05-19T08:24:02.377Z,1.67
2023-05-19T08:26:29.759Z,1.75
2023-05-19T08:28:56.939Z,1.67
2023-05-19T08:31:24.935Z,1.40
2023-05-19T08:33:52.698Z,1.35
2023-05-19T08:36:19.781Z,1.70
2023-05-19T08:38:46.863Z,1.70
2023-05-19T08:41:13.993Z,1.80
2023-05-19T08:43:41.103Z,1.50
2023-05-19T08:46:13.506Z,1.30
2023-05-19T08:48:43.537Z,1.38
2023-05-19T08:51:37.047Z,1.60
2023-05-19T08:54:16.254Z,1.42
2023-05-19T08:56:46.580Z,1.50
2023-05-19T08:59:15.432Z,1.17
2023-05-19T09:01:46.986Z,1.13
2023-05-19T09:04:16.840Z,1.40
2023-05-19T09:06:45.235Z,1.27
2023-05-19T09:09:12.568Z,1.35
2023-05-19T09:11:39.609Z,1.30
2023-05-19T09:14:06.698Z,1.20
2023-05-19T09:16:34.279Z,1.63
2023-05-19T09:19:01.914Z,1.02
2023-05-19T09:21:33.112Z,1.23
2023-05-19T09:24:08.291Z,1.30
2023-05-19T09:26:40.739Z,1.20
2023-05-19T09:29:18.173Z,1.20
2023-05-19T09:31:50.573Z,1.20
2023-05-19T09:34:18.740Z,1.23
2023-05-19T09:36:49.593Z,1.33
2023-05-19T09:39:18.701Z,1.50
2023-05-19T09:41:46.117Z,1.52
2023-05-19T09:44:29.581Z,1.40
2023-05-19T09:46:58.714Z,1.23
2023-05-19T09:49:32.680Z,1.88
2023-05-19T09:52:03.795Z,1.63
2023-05-19T09:54:32.506Z,1.33
2023-05-19T09:57:07.108Z,1.40
2023-05-19T09:59:35.805Z,1.50
2023-05-19T10:02:03.347Z,1.30
2023-05-19T10:04:31.662Z,1.83
2023-05-19T10:06:59.672Z,1.50
2023-05-19T10:09:31.785Z,2.15
2023-05-19T10:11:59.331Z,2.42
2023-05-19T10:14:29.512Z,1.90
2023-05-19T10:16:59.048Z,1.63
2023-05-19T10:19:29.709Z,1.38
2023-05-19T10:21:57.211Z,1.40
2023-05-19T10:24:24.368Z,1.60
2023-05-19T10:27:18.596Z,1.58
2023-05-19T10:29:50.732Z,1.50
2023-05-19T10:32:24.797Z,1.52
2023-05-19T10:35:05.291Z,1.38
2023-05-19T10:37:46.290Z,1.35
2023-05-19T10:40:24.388Z,1.50
2023-05-19T10:43:02.146Z,1.80
2023-05-19T10:45:40.955Z,1.35
2023-05-19T10:48:19.387Z,1.45
2023-05-19T10:50:47.764Z,1.80
2023-05-19T10:53:18.160Z,1.60
2023-05-19T10:55:57.565Z,1.88
2023-05-19T10:58:52.768Z,1.92
2023-05-19T11:01:40.477Z,2.22
2023-05-19T11:04:16.754Z,1.67
2023-05-19T11:07:19.055Z,1.50
2023-05-19T11:10:06.846Z,2.17
2023-05-19T11:12:46.025Z,1.60
2023-05-19T11:15:17.728Z,1.58
2023-05-19T11:17:54.853Z,1.30
2023-05-19T11:21:03.737Z,1.50
2023-05-19T11:23:47.482Z,1.98
2023-05-19T11:27:09.241Z,1.77
2023-05-19T11:29:43.151Z,1.67
2023-05-19T11:32:17.100Z,1.95
2023-05-19T11:35:00.101Z,1.55
2023-05-19T11:37:41.287Z,1.45
2023-05-19T11:43:13.539Z,1.65
2023-05-19T11:46:40.782Z,1.75
2023-05-19T11:49:22.464Z,1.73
2023-05-19T11:51:51.485Z,1.67
2023-05-19T11:55:02.016Z,1.40
2023-05-19T12:00:46.672Z,1.42
2023-05-19T12:03:22.929Z,1.42
2023-05-19T12:05:52.865Z,1.27
2023-05-19T12:09:07.932Z,1.58
2023-05-19T12:11:50.245Z,1.80
2023-05-19T12:14:36.197Z,1.30
2023-05-19T12:17:18.462Z,1.77
2023-05-19T12:32:09.590Z,1.40
2023-05-19T12:34:56.980Z,1.30
2023-05-19T12:37:30.869Z,1.27
2023-05-19T12:40:20.993Z,1.20
2023-05-19T12:43:19.565Z,1.52
2023-05-19T12:46:18.866Z,1.70
2023-05-19T12:49:27.178Z,1.58
2023-05-19T12:52:13.307Z,1.30
2023-05-19T12:54:43.545Z,1.42
2023-05-19T12:57:21.999Z,1.23
2023-05-19T13:00:07.446Z,1.40
2023-05-19T13:02:36.685Z,1.48
2023-05-19T13:05:04.888Z,1.27
2023-05-19T13:07:32.118Z,1.30
2023-05-19T13:09:59.097Z,1.42
2023-05-19T13:12:26.233Z,1.40
2023-05-19T13:14:55.532Z,1.80
2023-05-19T13:17:22.816Z,1.60
2023-05-19T13:19:49.915Z,1.55
2023-05-19T13:22:16.990Z,1.75
2023-05-19T13:24:43.933Z,1.33
2023-05-19T13:27:10.879Z,1.75
2023-05-19T13:29:37.867Z,1.17
2023-05-19T13:32:05.456Z,1.17
2023-05-19T13:34:32.801Z,1.38
2023-05-19T13:36:59.956Z,1.27
2023-05-19T13:39:26.982Z,1.55
2023-05-19T13:41:53.923Z,1.25
2023-05-19T13:44:20.859Z,1.30
2023-05-19T13:46:49.245Z,1.08
2023-05-19T13:49:17.783Z,1.50
2023-05-19T13:51:44.804Z,1.30
2023-05-19T13:54:11.837Z,1.13
2023-05-19T13:56:39.659Z,1.67
2023-05-19T13:59:07.105Z,1.42
2023-05-19T14:01:34.067Z,1.27
2023-05-19T14:04:01.284Z,1.58
2023-05-19T14:06:28.374Z,1.33
2023-05-19T14:08:55.403Z,1.02
2023-05-19T14:11:22.659Z,1.70
2023-05-19T14:13:52.513Z,1.45
2023-05-19T14:16:21.891Z,1.15
2023-05-19T14:18:49.574Z,1.50
2023-05-19T14:21:16.709Z,1.40
2023-05-19T14:23:44.258Z,1.38
2023-05-19T14:26:11.206Z,1.30
2023-05-19T14:28:38.299Z,1.63
2023-05-19T14:31:06.082Z,1.73
2023-05-19T14:33:35.591Z,1.30
2023-05-19T14:36:03.390Z,1.38
2023-05-19T14:38:30.492Z,1.20
2023-05-19T14:40:57.735Z,1.65
2023-05-19T14:43:24.850Z,1.88
2023-05-19T14:45:51.863Z,1.58
2023-05-19T14:48:19.009Z,1.48
2023-05-19T14:50:48.249Z,1.30
2023-05-19T14:53:16.242Z,1.63
2023-05-19T14:55:43.740Z,1.30
2023-05-19T14:58:26.942Z,1.20
2023-05-19T15:00:57.546Z,1.70
2023-05-19T15:03:24.944Z,1.38
2023-05-19T15:05:52.338Z,1.15
2023-05-19T15:08:19.398Z,1.23
2023-05-19T15:10:50.426Z,1.40
2023-05-19T15:13:19.008Z,1.30
2023-05-19T15:15:46.151Z,1.52
2023-05-19T15:18:15.987Z,1.10
2023-05-19T15:20:44.055Z,1.17
2023-05-19T15:23:11.182Z,1.45
2023-05-19T15:25:38.504Z,1.67
2023-05-19T15:28:05.661Z,1.48
2023-05-19T15:30:32.675Z,1.20
2023-05-19T15:32:59.871Z,1.40
2023-05-19T15:35:26.929Z,1.27
2023-05-19T15:37:53.869Z,1.50
2023-05-19T15:40:20.853Z,1.33
2023-05-19T15:47:13.713Z,1.17
2023-05-19T15:49:40.688Z,1.35
2023-05-19T15:52:07.687Z,1.40
2023-05-19T15:54:34.586Z,1.13
2023-05-19T15:57:01.596Z,1.30
2023-05-19T15:59:28.541Z,1.23
2023-05-19T16:01:55.635Z,1.45
2023-05-19T16:04:22.797Z,1.45
2023-05-19T16:06:50.000Z,1.30
2023-05-19T16:09:16.938Z,1.58
2023-05-19T16:11:43.906Z,1.42
2023-05-19T16:14:10.941Z,1.50
2023-05-19T16:16:37.930Z,1.52
2023-05-19T16:19:04.933Z,1.40
2023-05-19T16:21:33.011Z,1.55
2023-05-19T16:24:07.542Z,1.30
2023-05-19T16:26:40.047Z,1.38
2023-05-19T16:29:26.271Z,1.48
2023-05-19T16:31:55.629Z,1.40
2023-05-19T16:34:24.395Z,1.33
2023-05-19T16:37:13.557Z,1.40
2023-05-19T16:39:52.895Z,1.50
2023-05-19T16:42:29.668Z,1.55
2023-05-19T16:45:22.210Z,1.15
2023-05-19T16:47:59.713Z,1.65
2023-05-19T16:50:32.988Z,1.42
2023-05-19T16:53:02.720Z,1.33
2023-05-19T16:55:30.979Z,1.70
2023-05-19T16:57:59.974Z,1.13
2023-05-19T17:00:30.508Z,1.30
2023-05-19T17:03:01.394Z,1.05
2023-05-19T17:05:33.932Z,1.35
2023-05-19T17:08:03.204Z,1.50
2023-05-19T17:10:34.755Z,1.30
2023-05-19T17:13:03.034Z,1.65
2023-05-19T17:15:31.600Z,1.30
2023-05-19T17:18:00.842Z,1.30
2023-05-19T17:20:29.813Z,1.00
2023-05-19T17:23:06.275Z,1.60
2023-05-19T17:25:49.692Z,1.30
2023-05-19T17:28:35.226Z,1.33
2023-05-19T17:31:24.657Z,1.52
2023-05-19T17:33:58.520Z,1.35
2023-05-19T17:36:27.342Z,1.27
2023-05-19T17:38:56.135Z,1.10
2023-05-19T17:41:24.937Z,1.20
2023-05-19T17:44:07.556Z,1.38
2023-05-19T17:47:05.508Z,1.20
2023-05-19T17:50:00.921Z,1.30
2023-05-19T17:52:30.042Z,1.20
2023-05-19T17:55:39.147Z,1.25
2023-05-19T17:59:00.866Z,1.58
2023-05-19T18:01:34.721Z,1.33
2023-05-19T18:04:04.026Z,1.35
2023-05-19T18:06:44.408Z,1.20
2023-05-19T18:09:31.800Z,0.95
2023-05-19T18:12:19.080Z,1.30
2023-05-19T18:14:54.114Z,1.45
2023-05-19T18:17:47.504Z,1.30
2023-05-19T18:20:46.871Z,1.40
2023-05-19T18:23:44.665Z,1.48
2023-05-19T18:26:23.313Z,1.38
2023-05-19T18:28:53.513Z,1.52
2023-05-19T18:31:32.745Z,1.30
2023-05-19T18:34:17.916Z,1.42
2023-05-19T18:37:02.933Z,1.33
2023-05-19T18:39:50.088Z,1.30
2023-05-19T18:42:49.896Z,1.50
2023-05-19T18:45:29.025Z,1.35
2023-05-19T18:48:03.032Z,1.20
2023-05-19T18:50:40.730Z,1.40
2023-05-19T18:53:13.323Z,1.30
2023-05-19T18:56:02.216Z,1.08
2023-05-19T18:58:43.441Z,1.50
2023-05-19T19:01:31.673Z,1.50
2023-05-19T19:04:20.459Z,1.50
2023-05-19T19:07:02.631Z,2.10
2023-05-19T19:09:51.950Z,1.77
2023-05-19T19:12:29.579Z,1.77
2023-05-19T19:15:04.087Z,1.90
2023-05-19T19:17:39.397Z,1.58
2023-05-19T19:25:47.494Z,1.70
2023-05-19T19:29:59.863Z,1.48
2023-05-19T19:32:43.448Z,1.73
2023-05-19T19:35:34.455Z,1.30
2023-05-19T19:38:50.258Z,1.25
2023-05-19T19:41:30.200Z,1.50
2023-05-19T19:55:30.613Z,1.45
2023-05-19T19:56:59.654Z,1.40
2023-05-19T20:00:15.152Z,1.60
2023-05-19T20:06:27.081Z,1.35
2023-05-19T20:10:15.023Z,1.52
2023-05-19T20:13:08.795Z,1.67
2023-05-19T20:19:40.314Z,1.70
2023-05-19T20:27:25.316Z,1.55
2023-05-19T21:05:30.228Z,1.38
2023-05-19T21:13:06.389Z,1.30
2023-05-19T21:24:00.585Z,1.75
2023-05-19T21:26:31.757Z,1.15
2023-05-19T21:29:00.563Z,1.25
2023-05-19T21:31:40.952Z,1.50
2023-05-19T21:34:28.564Z,1.33
2023-05-19T21:37:02.828Z,1.42
2023-05-19T21:39:36.937Z,1.48
2023-05-19T21:43:04.495Z,1.60
2023-05-19T21:53:35.288Z,1.52
2023-05-19T21:56:49.394Z,1.65
2023-05-19T21:59:47.972Z,1.38
2023-05-19T22:02:22.446Z,1.15
2023-05-19T22:04:50.561Z,1.55
2023-05-19T22:07:27.057Z,1.88
2023-05-19T22:09:56.935Z,1.60
2023-05-19T22:12:35.054Z,1.25
2023-05-19T22:15:08.130Z,1.50
2023-05-19T22:18:16.256Z,1.33
2023-05-19T22:21:19.213Z,1.50
2023-05-19T22:23:54.996Z,1.35
2023-05-19T22:26:43.036Z,2.10
2023-05-19T22:29:25.234Z,1.50
2023-05-19T22:32:22.282Z,1.55
2023-05-19T22:34:50.544Z,1.40
2023-05-19T22:37:17.639Z,1.65
2023-05-19T22:39:44.960Z,1.30
2023-05-19T22:42:11.938Z,1.60
2023-05-19T22:44:38.956Z,1.40
2023-05-19T22:47:05.963Z,1.25
2023-05-19T22:49:33.142Z,1.65
2023-05-19T22:52:00.225Z,1.50
2023-05-19T22:54:27.175Z,1.50
2023-05-19T22:56:54.246Z,1.50
2023-05-19T22:59:21.592Z,1.30
2023-05-19T23:01:48.598Z,1.88
2023-05-19T23:04:16.001Z,1.42
2023-05-19T23:06:43.262Z,1.63
2023-05-19T23:09:10.482Z,1.60
2023-05-19T23:11:37.485Z,1.33
2023-05-19T23:14:04.563Z,1.42
2023-05-19T23:16:31.766Z,1.60
2023-05-19T23:18:59.208Z,1.38
2023-05-19T23:21:26.271Z,1.63
2023-05-19T23:23:53.394Z,1.45
2023-05-19T23:26:21.326Z,1.55
2023-05-19T23:28:48.412Z,1.55
2023-05-19T23:31:15.487Z,1.58
2023-05-19T23:33:42.694Z,1.33
2023-05-19T23:36:11.336Z,1.77
2023-05-19T23:38:38.415Z,1.60
2023-05-19T23:41:05.789Z,1.50
2023-05-19T23:43:32.925Z,1.80
2023-05-19T23:46:00.212Z,1.80
2023-05-19T23:48:30.461Z,1.60
2023-05-19T23:50:58.412Z,1.60
2023-05-19T23:53:26.042Z,1.50
2023-05-19T23:55:52.977Z,1.63
2023-05-19T23:58:20.076Z,1.77
